Mascot, Virginia
Current Conditions -  °F | °C
As of 3:15 AM on Thursday 29 Jan 2015 (Local Time) from KFYJ Reporting Station
Clear Clear  
Wind Chill: 22°   Ceiling: Unl
Heat Index: 22°   Visibility: 10mi
Dew Point: 15°   Wind: 0mph
Humidity: 76%   Direction: NA
Pressure: 30.37"   Gusts: NA
Location:  37.63°N, 76.71°W
Report Text: KFYJ 290815Z AUTO 00000KT 10SM CLR M06/M09 A3037 RMK AO2 T10581094
Loading
Personal Weather Stations






























Interactive Weather Map New forecast layout! Learn more

10-Day Weather Forecast

Advertisements
Track Severe Weather on mobile